sensor_id;sensor_type;location;lat;lon;timestamp;P1;durP1;ratioP1;P2;durP2;ratioP2
25946;SDS011;13745;51.470;9.894;2022-07-29T00:02:15;5.80;;;1.10;;
25946;SDS011;13745;51.470;9.894;2022-07-29T00:05:03;3.53;;;1.10;;
25946;SDS011;13745;51.470;9.894;2022-07-29T00:07:50;5.20;;;1.10;;
25946;SDS011;13745;51.470;9.894;2022-07-29T00:10:36;2.63;;;0.80;;
25946;SDS011;13745;51.470;9.894;2022-07-29T00:13:22;1.55;;;0.82;;
25946;SDS011;13745;51.470;9.894;2022-07-29T00:16:08;3.28;;;0.90;;
25946;SDS011;13745;51.470;9.894;2022-07-29T00:18:54;2.08;;;0.90;;
25946;SDS011;13745;51.470;9.894;2022-07-29T00:21:41;6.07;;;0.95;;
25946;SDS011;13745;51.470;9.894;2022-07-29T00:24:27;5.28;;;0.93;;
25946;SDS011;13745;51.470;9.894;2022-07-29T00:27:13;2.70;;;0.70;;
25946;SDS011;13745;51.470;9.894;2022-07-29T00:29:59;3.72;;;1.05;;
25946;SDS011;13745;51.470;9.894;2022-07-29T00:32:45;5.18;;;1.15;;
25946;SDS011;13745;51.470;9.894;2022-07-29T00:35:30;3.53;;;1.20;;
25946;SDS011;13745;51.470;9.894;2022-07-29T00:38:33;3.60;;;1.30;;
25946;SDS011;13745;51.470;9.894;2022-07-29T00:41:19;4.30;;;0.82;;
25946;SDS011;13745;51.470;9.894;2022-07-29T00:44:05;6.32;;;1.10;;
25946;SDS011;13745;51.470;9.894;2022-07-29T00:46:51;2.78;;;0.85;;
25946;SDS011;13745;51.470;9.894;2022-07-29T00:49:37;7.45;;;0.93;;
25946;SDS011;13745;51.470;9.894;2022-07-29T00:52:24;4.38;;;1.00;;
25946;SDS011;13745;51.470;9.894;2022-07-29T00:55:12;1.95;;;0.90;;
25946;SDS011;13745;51.470;9.894;2022-07-29T00:58:00;4.80;;;1.13;;
25946;SDS011;13745;51.470;9.894;2022-07-29T01:00:46;4.13;;;1.13;;
25946;SDS011;13745;51.470;9.894;2022-07-29T01:03:31;5.00;;;1.00;;
25946;SDS011;13745;51.470;9.894;2022-07-29T01:06:18;3.10;;;1.10;;
25946;SDS011;13745;51.470;9.894;2022-07-29T01:09:05;5.93;;;1.20;;
25946;SDS011;13745;51.470;9.894;2022-07-29T01:11:53;3.28;;;0.90;;
25946;SDS011;13745;51.470;9.894;2022-07-29T01:14:39;5.05;;;0.90;;
25946;SDS011;13745;51.470;9.894;2022-07-29T01:17:28;1.55;;;0.90;;
25946;SDS011;13745;51.470;9.894;2022-07-29T01:20:20;1.85;;;0.90;;
25946;SDS011;13745;51.470;9.894;2022-07-29T01:23:26;5.97;;;1.08;;
25946;SDS011;13745;51.470;9.894;2022-07-29T01:26:34;2.13;;;0.80;;
25946;SDS011;13745;51.470;9.894;2022-07-29T01:29:28;4.32;;;1.00;;
25946;SDS011;13745;51.470;9.894;2022-07-29T01:32:18;2.20;;;0.80;;
25946;SDS011;13745;51.470;9.894;2022-07-29T01:35:08;5.63;;;0.75;;
25946;SDS011;13745;51.470;9.894;2022-07-29T01:38:01;3.60;;;0.90;;
25946;SDS011;13745;51.470;9.894;2022-07-29T01:40:53;1.35;;;1.02;;
25946;SDS011;13745;51.470;9.894;2022-07-29T01:43:46;3.15;;;0.80;;
25946;SDS011;13745;51.470;9.894;2022-07-29T01:46:39;2.50;;;0.95;;
25946;SDS011;13745;51.470;9.894;2022-07-29T01:49:30;3.43;;;1.10;;
25946;SDS011;13745;51.470;9.894;2022-07-29T01:52:23;2.55;;;1.05;;
25946;SDS011;13745;51.470;9.894;2022-07-29T01:55:13;5.38;;;1.13;;
25946;SDS011;13745;51.470;9.894;2022-07-29T01:58:00;5.97;;;1.30;;
25946;SDS011;13745;51.470;9.894;2022-07-29T02:00:49;10.75;;;1.30;;
25946;SDS011;13745;51.470;9.894;2022-07-29T02:03:38;4.93;;;1.67;;
25946;SDS011;13745;51.470;9.894;2022-07-29T02:06:25;3.30;;;0.90;;
25946;SDS011;13745;51.470;9.894;2022-07-29T02:09:13;6.25;;;1.20;;
25946;SDS011;13745;51.470;9.894;2022-07-29T02:12:02;3.83;;;0.90;;
25946;SDS011;13745;51.470;9.894;2022-07-29T02:14:50;4.20;;;0.90;;
25946;SDS011;13745;51.470;9.894;2022-07-29T02:17:39;2.42;;;0.93;;
25946;SDS011;13745;51.470;9.894;2022-07-29T02:20:29;3.35;;;1.67;;
25946;SDS011;13745;51.470;9.894;2022-07-29T02:23:17;9.10;;;1.88;;
25946;SDS011;13745;51.470;9.894;2022-07-29T02:26:05;8.52;;;1.23;;
25946;SDS011;13745;51.470;9.894;2022-07-29T02:28:54;3.25;;;1.05;;
25946;SDS011;13745;51.470;9.894;2022-07-29T02:31:41;3.08;;;0.95;;
25946;SDS011;13745;51.470;9.894;2022-07-29T02:34:31;5.13;;;0.93;;
25946;SDS011;13745;51.470;9.894;2022-07-29T02:37:20;2.22;;;1.10;;
25946;SDS011;13745;51.470;9.894;2022-07-29T02:40:08;2.45;;;1.10;;
25946;SDS011;13745;51.470;9.894;2022-07-29T02:42:56;3.15;;;0.80;;
25946;SDS011;13745;51.470;9.894;2022-07-29T02:45:42;2.92;;;1.00;;
25946;SDS011;13745;51.470;9.894;2022-07-29T02:48:32;4.03;;;0.90;;
25946;SDS011;13745;51.470;9.894;2022-07-29T02:51:23;5.55;;;1.27;;
25946;SDS011;13745;51.470;9.894;2022-07-29T02:54:21;2.40;;;0.90;;
25946;SDS011;13745;51.470;9.894;2022-07-29T02:57:14;3.22;;;1.10;;
25946;SDS011;13745;51.470;9.894;2022-07-29T03:00:15;2.80;;;0.98;;
25946;SDS011;13745;51.470;9.894;2022-07-29T03:03:03;4.30;;;1.05;;
25946;SDS011;13745;51.470;9.894;2022-07-29T03:05:53;2.47;;;0.80;;
25946;SDS011;13745;51.470;9.894;2022-07-29T03:08:42;5.63;;;1.10;;
25946;SDS011;13745;51.470;9.894;2022-07-29T03:11:29;2.92;;;0.85;;
25946;SDS011;13745;51.470;9.894;2022-07-29T03:14:16;3.38;;;1.63;;
25946;SDS011;13745;51.470;9.894;2022-07-29T03:17:02;3.10;;;0.85;;
25946;SDS011;13745;51.470;9.894;2022-07-29T03:19:48;3.45;;;0.90;;
25946;SDS011;13745;51.470;9.894;2022-07-29T03:22:38;1.25;;;0.70;;
25946;SDS011;13745;51.470;9.894;2022-07-29T03:25:27;5.13;;;0.90;;
25946;SDS011;13745;51.470;9.894;2022-07-29T03:28:15;4.15;;;1.02;;
25946;SDS011;13745;51.470;9.894;2022-07-29T03:31:01;2.88;;;1.30;;
25946;SDS011;13745;51.470;9.894;2022-07-29T03:33:47;3.20;;;1.00;;
25946;SDS011;13745;51.470;9.894;2022-07-29T03:36:32;3.63;;;0.95;;
25946;SDS011;13745;51.470;9.894;2022-07-29T03:39:20;8.18;;;0.80;;
25946;SDS011;13745;51.470;9.894;2022-07-29T03:42:08;2.10;;;0.88;;
25946;SDS011;13745;51.470;9.894;2022-07-29T03:44:58;3.85;;;0.88;;
25946;SDS011;13745;51.470;9.894;2022-07-29T03:47:48;5.40;;;1.10;;
25946;SDS011;13745;51.470;9.894;2022-07-29T03:50:36;1.90;;;0.85;;
25946;SDS011;13745;51.470;9.894;2022-07-29T03:53:22;3.83;;;1.10;;
25946;SDS011;13745;51.470;9.894;2022-07-29T03:56:08;6.90;;;1.10;;
25946;SDS011;13745;51.470;9.894;2022-07-29T03:58:57;3.60;;;1.20;;
25946;SDS011;13745;51.470;9.894;2022-07-29T04:01:45;2.50;;;0.70;;
25946;SDS011;13745;51.470;9.894;2022-07-29T04:04:32;4.03;;;1.13;;
25946;SDS011;13745;51.470;9.894;2022-07-29T04:07:18;1.63;;;0.88;;
25946;SDS011;13745;51.470;9.894;2022-07-29T04:10:05;2.92;;;0.90;;
25946;SDS011;13745;51.470;9.894;2022-07-29T04:12:52;3.55;;;0.93;;
25946;SDS011;13745;51.470;9.894;2022-07-29T04:15:38;4.68;;;0.98;;
25946;SDS011;13745;51.470;9.894;2022-07-29T04:18:25;4.88;;;0.98;;
25946;SDS011;13745;51.470;9.894;2022-07-29T04:21:11;4.50;;;0.93;;
25946;SDS011;13745;51.470;9.894;2022-07-29T04:23:57;5.47;;;1.10;;
25946;SDS011;13745;51.470;9.894;2022-07-29T04:26:45;5.47;;;1.40;;
25946;SDS011;13745;51.470;9.894;2022-07-29T04:29:31;3.67;;;0.90;;
25946;SDS011;13745;51.470;9.894;2022-07-29T04:32:16;2.67;;;0.80;;
25946;SDS011;13745;51.470;9.894;2022-07-29T04:35:04;2.92;;;1.10;;
25946;SDS011;13745;51.470;9.894;2022-07-29T04:37:50;4.50;;;1.33;;
25946;SDS011;13745;51.470;9.894;2022-07-29T04:40:36;2.38;;;1.08;;
25946;SDS011;13745;51.470;9.894;2022-07-29T04:43:22;6.85;;;1.23;;
25946;SDS011;13745;51.470;9.894;2022-07-29T04:46:08;6.90;;;1.13;;
25946;SDS011;13745;51.470;9.894;2022-07-29T04:48:54;3.47;;;1.00;;
25946;SDS011;13745;51.470;9.894;2022-07-29T04:51:41;2.15;;;0.93;;
25946;SDS011;13745;51.470;9.894;2022-07-29T04:54:27;3.83;;;1.08;;
25946;SDS011;13745;51.470;9.894;2022-07-29T04:57:13;2.67;;;0.95;;
25946;SDS011;13745;51.470;9.894;2022-07-29T04:59:58;2.58;;;0.95;;
25946;SDS011;13745;51.470;9.894;2022-07-29T05:02:45;6.13;;;1.02;;
25946;SDS011;13745;51.470;9.894;2022-07-29T05:05:30;3.05;;;1.10;;
25946;SDS011;13745;51.470;9.894;2022-07-29T05:08:17;4.63;;;1.20;;
25946;SDS011;13745;51.470;9.894;2022-07-29T05:11:03;3.03;;;1.45;;
25946;SDS011;13745;51.470;9.894;2022-07-29T05:13:49;2.95;;;1.10;;
25946;SDS011;13745;51.470;9.894;2022-07-29T05:16:35;2.63;;;1.00;;
25946;SDS011;13745;51.470;9.894;2022-07-29T05:19:21;7.80;;;1.42;;
25946;SDS011;13745;51.470;9.894;2022-07-29T05:22:07;2.22;;;1.20;;
25946;SDS011;13745;51.470;9.894;2022-07-29T05:24:55;4.43;;;1.13;;
25946;SDS011;13745;51.470;9.894;2022-07-29T05:27:40;4.05;;;1.10;;
25946;SDS011;13745;51.470;9.894;2022-07-29T05:30:26;3.95;;;0.95;;
25946;SDS011;13745;51.470;9.894;2022-07-29T05:33:12;8.30;;;1.45;;
25946;SDS011;13745;51.470;9.894;2022-07-29T05:35:58;7.07;;;1.10;;
25946;SDS011;13745;51.470;9.894;2022-07-29T05:38:44;9.45;;;1.10;;
25946;SDS011;13745;51.470;9.894;2022-07-29T05:41:32;7.18;;;1.08;;
25946;SDS011;13745;51.470;9.894;2022-07-29T05:44:18;5.72;;;1.45;;
25946;SDS011;13745;51.470;9.894;2022-07-29T05:47:04;4.28;;;1.10;;
25946;SDS011;13745;51.470;9.894;2022-07-29T05:49:50;4.18;;;1.15;;
25946;SDS011;13745;51.470;9.894;2022-07-29T05:52:36;5.25;;;1.10;;
25946;SDS011;13745;51.470;9.894;2022-07-29T05:55:22;2.20;;;1.10;;
25946;SDS011;13745;51.470;9.894;2022-07-29T05:58:09;13.40;;;1.13;;
25946;SDS011;13745;51.470;9.894;2022-07-29T06:00:55;5.20;;;0.90;;
25946;SDS011;13745;51.470;9.894;2022-07-29T06:03:43;3.80;;;0.90;;
25946;SDS011;13745;51.470;9.894;2022-07-29T06:06:29;7.30;;;1.63;;
25946;SDS011;13745;51.470;9.894;2022-07-29T06:09:15;3.03;;;1.00;;
25946;SDS011;13745;51.470;9.894;2022-07-29T06:12:00;6.05;;;0.90;;
25946;SDS011;13745;51.470;9.894;2022-07-29T06:14:48;4.15;;;1.05;;
25946;SDS011;13745;51.470;9.894;2022-07-29T06:17:33;3.15;;;1.05;;
25946;SDS011;13745;51.470;9.894;2022-07-29T06:20:19;3.65;;;1.10;;
25946;SDS011;13745;51.470;9.894;2022-07-29T06:23:05;3.50;;;0.90;;
25946;SDS011;13745;51.470;9.894;2022-07-29T06:25:51;3.33;;;0.90;;
25946;SDS011;13745;51.470;9.894;2022-07-29T06:28:37;2.20;;;1.10;;
25946;SDS011;13745;51.470;9.894;2022-07-29T06:31:24;2.25;;;0.90;;
25946;SDS011;13745;51.470;9.894;2022-07-29T06:34:10;3.92;;;1.20;;
25946;SDS011;13745;51.470;9.894;2022-07-29T06:36:55;1.70;;;0.93;;
25946;SDS011;13745;51.470;9.894;2022-07-29T06:39:41;3.58;;;1.10;;
25946;SDS011;13745;51.470;9.894;2022-07-29T06:42:27;4.45;;;0.90;;
25946;SDS011;13745;51.470;9.894;2022-07-29T06:45:13;5.97;;;1.33;;
25946;SDS011;13745;51.470;9.894;2022-07-29T06:48:01;7.60;;;1.38;;
25946;SDS011;13745;51.470;9.894;2022-07-29T06:50:47;2.85;;;1.10;;
25946;SDS011;13745;51.470;9.894;2022-07-29T06:53:33;7.68;;;1.17;;
25946;SDS011;13745;51.470;9.894;2022-07-29T06:56:20;4.28;;;1.10;;
25946;SDS011;13745;51.470;9.894;2022-07-29T06:59:06;4.55;;;1.10;;
25946;SDS011;13745;51.470;9.894;2022-07-29T07:01:53;5.00;;;1.40;;
25946;SDS011;13745;51.470;9.894;2022-07-29T07:04:40;2.15;;;0.98;;
25946;SDS011;13745;51.470;9.894;2022-07-29T07:07:26;3.22;;;1.20;;
25946;SDS011;13745;51.470;9.894;2022-07-29T07:10:12;4.15;;;1.70;;
25946;SDS011;13745;51.470;9.894;2022-07-29T07:12:59;3.63;;;1.25;;
25946;SDS011;13745;51.470;9.894;2022-07-29T07:15:45;4.28;;;1.30;;
25946;SDS011;13745;51.470;9.894;2022-07-29T07:18:32;4.25;;;1.20;;
25946;SDS011;13745;51.470;9.894;2022-07-29T07:21:19;2.38;;;1.17;;
25946;SDS011;13745;51.470;9.894;2022-07-29T07:24:06;2.20;;;1.10;;
25946;SDS011;13745;51.470;9.894;2022-07-29T07:26:51;2.92;;;1.30;;
25946;SDS011;13745;51.470;9.894;2022-07-29T07:29:37;6.22;;;1.00;;
25946;SDS011;13745;51.470;9.894;2022-07-29T07:32:25;4.45;;;1.02;;
25946;SDS011;13745;51.470;9.894;2022-07-29T07:35:11;2.88;;;1.20;;
25946;SDS011;13745;51.470;9.894;2022-07-29T07:37:58;3.47;;;1.13;;
25946;SDS011;13745;51.470;9.894;2022-07-29T07:40:44;8.52;;;1.38;;
25946;SDS011;13745;51.470;9.894;2022-07-29T07:43:31;2.67;;;1.52;;
25946;SDS011;13745;51.470;9.894;2022-07-29T07:46:17;7.43;;;1.55;;
25946;SDS011;13745;51.470;9.894;2022-07-29T07:49:03;5.00;;;1.40;;
25946;SDS011;13745;51.470;9.894;2022-07-29T07:51:49;3.00;;;1.17;;
25946;SDS011;13745;51.470;9.894;2022-07-29T07:54:36;3.10;;;1.00;;
25946;SDS011;13745;51.470;9.894;2022-07-29T07:57:22;4.22;;;1.42;;
25946;SDS011;13745;51.470;9.894;2022-07-29T08:00:08;4.78;;;1.20;;
25946;SDS011;13745;51.470;9.894;2022-07-29T08:02:59;4.95;;;1.27;;
25946;SDS011;13745;51.470;9.894;2022-07-29T08:05:45;4.80;;;1.27;;
25946;SDS011;13745;51.470;9.894;2022-07-29T08:08:31;4.03;;;0.90;;
25946;SDS011;13745;51.470;9.894;2022-07-29T08:11:19;4.78;;;1.08;;
25946;SDS011;13745;51.470;9.894;2022-07-29T08:14:05;5.53;;;1.20;;
25946;SDS011;13745;51.470;9.894;2022-07-29T08:16:51;5.72;;;1.20;;
25946;SDS011;13745;51.470;9.894;2022-07-29T08:19:37;7.18;;;1.10;;
25946;SDS011;13745;51.470;9.894;2022-07-29T08:22:22;3.00;;;1.20;;
25946;SDS011;13745;51.470;9.894;2022-07-29T08:25:08;4.15;;;1.20;;
25946;SDS011;13745;51.470;9.894;2022-07-29T08:27:55;6.00;;;1.30;;
25946;SDS011;13745;51.470;9.894;2022-07-29T08:30:41;1.92;;;1.10;;
25946;SDS011;13745;51.470;9.894;2022-07-29T08:33:27;8.07;;;1.58;;
25946;SDS011;13745;51.470;9.894;2022-07-29T08:36:13;5.93;;;1.20;;
25946;SDS011;13745;51.470;9.894;2022-07-29T08:39:00;2.88;;;1.13;;
25946;SDS011;13745;51.470;9.894;2022-07-29T08:41:46;5.22;;;1.00;;
25946;SDS011;13745;51.470;9.894;2022-07-29T08:44:34;2.45;;;1.10;;
25946;SDS011;13745;51.470;9.894;2022-07-29T08:47:19;6.47;;;1.20;;
25946;SDS011;13745;51.470;9.894;2022-07-29T08:50:06;4.10;;;1.30;;
25946;SDS011;13745;51.470;9.894;2022-07-29T08:52:52;3.67;;;1.20;;
25946;SDS011;13745;51.470;9.894;2022-07-29T08:55:39;3.33;;;1.00;;
25946;SDS011;13745;51.470;9.894;2022-07-29T08:58:25;2.95;;;1.25;;
25946;SDS011;13745;51.470;9.894;2022-07-29T09:01:17;4.18;;;1.27;;
25946;SDS011;13745;51.470;9.894;2022-07-29T09:04:09;6.50;;;1.35;;
25946;SDS011;13745;51.470;9.894;2022-07-29T09:06:56;6.25;;;1.33;;
25946;SDS011;13745;51.470;9.894;2022-07-29T09:09:49;6.63;;;1.80;;
25946;SDS011;13745;51.470;9.894;2022-07-29T09:12:35;2.33;;;1.08;;
25946;SDS011;13745;51.470;9.894;2022-07-29T09:15:21;5.93;;;1.70;;
25946;SDS011;13745;51.470;9.894;2022-07-29T09:18:08;6.47;;;1.35;;
25946;SDS011;13745;51.470;9.894;2022-07-29T09:20:54;3.95;;;1.30;;
25946;SDS011;13745;51.470;9.894;2022-07-29T09:24:01;4.97;;;1.33;;
25946;SDS011;13745;51.470;9.894;2022-07-29T09:26:49;3.05;;;1.30;;
25946;SDS011;13745;51.470;9.894;2022-07-29T09:29:36;4.68;;;1.50;;
25946;SDS011;13745;51.470;9.894;2022-07-29T09:32:22;2.33;;;1.10;;
25946;SDS011;13745;51.470;9.894;2022-07-29T09:35:17;6.78;;;1.23;;
25946;SDS011;13745;51.470;9.894;2022-07-29T09:38:14;4.75;;;1.50;;
25946;SDS011;13745;51.470;9.894;2022-07-29T09:41:01;3.97;;;1.58;;
25946;SDS011;13745;51.470;9.894;2022-07-29T09:43:53;7.05;;;1.50;;
25946;SDS011;13745;51.470;9.894;2022-07-29T09:46:39;6.13;;;1.88;;
25946;SDS011;13745;51.470;9.894;2022-07-29T09:49:25;7.28;;;1.40;;
25946;SDS011;13745;51.470;9.894;2022-07-29T09:52:13;5.35;;;1.23;;
25946;SDS011;13745;51.470;9.894;2022-07-29T09:55:05;7.63;;;1.83;;
25946;SDS011;13745;51.470;9.894;2022-07-29T09:57:51;6.53;;;1.58;;
25946;SDS011;13745;51.470;9.894;2022-07-29T10:00:38;4.45;;;1.52;;
25946;SDS011;13745;51.470;9.894;2022-07-29T10:03:27;3.45;;;1.30;;
25946;SDS011;13745;51.470;9.894;2022-07-29T10:06:13;2.55;;;1.42;;
25946;SDS011;13745;51.470;9.894;2022-07-29T10:12:08;4.97;;;1.23;;
25946;SDS011;13745;51.470;9.894;2022-07-29T10:14:55;7.72;;;1.42;;
25946;SDS011;13745;51.470;9.894;2022-07-29T10:17:40;5.97;;;1.40;;
25946;SDS011;13745;51.470;9.894;2022-07-29T10:20:27;6.07;;;1.40;;
25946;SDS011;13745;51.470;9.894;2022-07-29T10:23:13;9.25;;;1.80;;
25946;SDS011;13745;51.470;9.894;2022-07-29T10:26:00;5.75;;;1.98;;
25946;SDS011;13745;51.470;9.894;2022-07-29T10:28:47;3.85;;;1.77;;
25946;SDS011;13745;51.470;9.894;2022-07-29T10:31:35;10.70;;;1.98;;
25946;SDS011;13745;51.470;9.894;2022-07-29T10:34:34;7.47;;;2.30;;
25946;SDS011;13745;51.470;9.894;2022-07-29T10:37:33;3.03;;;1.80;;
25946;SDS011;13745;51.470;9.894;2022-07-29T10:40:33;3.78;;;1.50;;
25946;SDS011;13745;51.470;9.894;2022-07-29T10:43:48;6.43;;;2.13;;
25946;SDS011;13745;51.470;9.894;2022-07-29T10:46:35;10.68;;;1.90;;
25946;SDS011;13745;51.470;9.894;2022-07-29T10:49:22;5.35;;;2.10;;
25946;SDS011;13745;51.470;9.894;2022-07-29T10:52:10;4.20;;;1.80;;
25946;SDS011;13745;51.470;9.894;2022-07-29T10:54:56;6.50;;;1.90;;
25946;SDS011;13745;51.470;9.894;2022-07-29T10:57:46;7.32;;;1.90;;
25946;SDS011;13745;51.470;9.894;2022-07-29T11:01:00;8.35;;;2.70;;
25946;SDS011;13745;51.470;9.894;2022-07-29T11:04:15;5.35;;;1.80;;
25946;SDS011;13745;51.470;9.894;2022-07-29T11:07:07;7.60;;;2.22;;
25946;SDS011;13745;51.470;9.894;2022-07-29T11:13:07;6.35;;;2.35;;
25946;SDS011;13745;51.470;9.894;2022-07-29T11:15:53;2.95;;;2.22;;
25946;SDS011;13745;51.470;9.894;2022-07-29T11:21:57;9.85;;;2.35;;
25946;SDS011;13745;51.470;9.894;2022-07-29T11:24:43;4.68;;;2.25;;
25946;SDS011;13745;51.470;9.894;2022-07-29T11:27:30;5.45;;;2.45;;
25946;SDS011;13745;51.470;9.894;2022-07-29T11:30:34;5.72;;;2.28;;
25946;SDS011;13745;51.470;9.894;2022-07-29T11:33:33;5.30;;;2.40;;
25946;SDS011;13745;51.470;9.894;2022-07-29T11:36:19;4.28;;;2.30;;
25946;SDS011;13745;51.470;9.894;2022-07-29T11:45:44;15.00;;;3.03;;
25946;SDS011;13745;51.470;9.894;2022-07-29T11:48:31;2.67;;;1.98;;
25946;SDS011;13745;51.470;9.894;2022-07-29T11:51:18;8.60;;;2.28;;
25946;SDS011;13745;51.470;9.894;2022-07-29T11:54:03;6.15;;;2.30;;
25946;SDS011;13745;51.470;9.894;2022-07-29T11:56:51;4.57;;;2.05;;
25946;SDS011;13745;51.470;9.894;2022-07-29T11:59:38;8.65;;;2.30;;
25946;SDS011;13745;51.470;9.894;2022-07-29T12:02:25;10.65;;;2.35;;
25946;SDS011;13745;51.470;9.894;2022-07-29T12:05:30;4.38;;;1.92;;
25946;SDS011;13745;51.470;9.894;2022-07-29T12:08:18;12.85;;;2.63;;
25946;SDS011;13745;51.470;9.894;2022-07-29T12:11:14;10.50;;;2.35;;
25946;SDS011;13745;51.470;9.894;2022-07-29T12:14:02;4.25;;;2.13;;
25946;SDS011;13745;51.470;9.894;2022-07-29T12:16:48;10.15;;;2.30;;
25946;SDS011;13745;51.470;9.894;2022-07-29T12:19:41;5.05;;;2.10;;
25946;SDS011;13745;51.470;9.894;2022-07-29T12:22:28;3.00;;;1.83;;
25946;SDS011;13745;51.470;9.894;2022-07-29T12:25:15;8.85;;;2.15;;
25946;SDS011;13745;51.470;9.894;2022-07-29T12:28:03;12.32;;;2.72;;
25946;SDS011;13745;51.470;9.894;2022-07-29T12:30:51;7.78;;;2.35;;
25946;SDS011;13745;51.470;9.894;2022-07-29T12:33:37;11.23;;;2.55;;
25946;SDS011;13745;51.470;9.894;2022-07-29T12:36:23;5.13;;;2.25;;
25946;SDS011;13745;51.470;9.894;2022-07-29T12:39:10;4.50;;;1.83;;
25946;SDS011;13745;51.470;9.894;2022-07-29T12:41:56;9.02;;;2.10;;
25946;SDS011;13745;51.470;9.894;2022-07-29T12:44:46;13.60;;;2.78;;
25946;SDS011;13745;51.470;9.894;2022-07-29T12:47:37;14.02;;;2.10;;
25946;SDS011;13745;51.470;9.894;2022-07-29T12:50:36;7.95;;;1.90;;
25946;SDS011;13745;51.470;9.894;2022-07-29T12:53:38;2.95;;;1.92;;
25946;SDS011;13745;51.470;9.894;2022-07-29T12:56:24;9.10;;;2.30;;
25946;SDS011;13745;51.470;9.894;2022-07-29T12:59:14;5.78;;;2.38;;
25946;SDS011;13745;51.470;9.894;2022-07-29T13:02:00;8.30;;;2.50;;
25946;SDS011;13745;51.470;9.894;2022-07-29T13:04:55;5.88;;;2.10;;
25946;SDS011;13745;51.470;9.894;2022-07-29T13:07:42;6.20;;;1.73;;
25946;SDS011;13745;51.470;9.894;2022-07-29T13:10:28;4.55;;;1.92;;
25946;SDS011;13745;51.470;9.894;2022-07-29T13:13:21;6.43;;;1.92;;
25946;SDS011;13745;51.470;9.894;2022-07-29T13:16:07;7.07;;;2.00;;
25946;SDS011;13745;51.470;9.894;2022-07-29T13:19:08;7.68;;;2.13;;
25946;SDS011;13745;51.470;9.894;2022-07-29T13:21:57;3.95;;;1.67;;
25946;SDS011;13745;51.470;9.894;2022-07-29T13:24:47;5.50;;;1.45;;
25946;SDS011;13745;51.470;9.894;2022-07-29T13:27:35;3.35;;;1.63;;
25946;SDS011;13745;51.470;9.894;2022-07-29T13:30:22;7.25;;;1.80;;
25946;SDS011;13745;51.470;9.894;2022-07-29T13:33:08;12.63;;;2.17;;
25946;SDS011;13745;51.470;9.894;2022-07-29T13:35:54;9.50;;;2.03;;
25946;SDS011;13745;51.470;9.894;2022-07-29T13:38:41;6.78;;;1.63;;
25946;SDS011;13745;51.470;9.894;2022-07-29T13:41:27;6.43;;;1.63;;
25946;SDS011;13745;51.470;9.894;2022-07-29T13:44:13;4.28;;;1.73;;
25946;SDS011;13745;51.470;9.894;2022-07-29T13:46:59;3.70;;;1.60;;
25946;SDS011;13745;51.470;9.894;2022-07-29T13:49:45;5.07;;;1.77;;
25946;SDS011;13745;51.470;9.894;2022-07-29T13:52:31;7.35;;;2.05;;
25946;SDS011;13745;51.470;9.894;2022-07-29T13:55:19;4.72;;;1.80;;
25946;SDS011;13745;51.470;9.894;2022-07-29T13:58:05;5.28;;;2.00;;
25946;SDS011;13745;51.470;9.894;2022-07-29T14:00:50;12.90;;;1.80;;
25946;SDS011;13745;51.470;9.894;2022-07-29T14:03:36;3.08;;;1.67;;
25946;SDS011;13745;51.470;9.894;2022-07-29T14:06:25;3.40;;;1.70;;
25946;SDS011;13745;51.470;9.894;2022-07-29T14:09:11;2.35;;;1.60;;
25946;SDS011;13745;51.470;9.894;2022-07-29T14:11:58;4.30;;;1.80;;
25946;SDS011;13745;51.470;9.894;2022-07-29T14:14:44;4.15;;;1.50;;
25946;SDS011;13745;51.470;9.894;2022-07-29T14:17:30;4.38;;;1.77;;
25946;SDS011;13745;51.470;9.894;2022-07-29T14:20:16;3.40;;;1.52;;
25946;SDS011;13745;51.470;9.894;2022-07-29T14:23:02;4.95;;;1.80;;
25946;SDS011;13745;51.470;9.894;2022-07-29T14:25:47;4.68;;;1.80;;
25946;SDS011;13745;51.470;9.894;2022-07-29T14:28:35;2.75;;;1.55;;
25946;SDS011;13745;51.470;9.894;2022-07-29T14:31:21;2.85;;;1.75;;
25946;SDS011;13745;51.470;9.894;2022-07-29T14:34:06;4.03;;;1.60;;
25946;SDS011;13745;51.470;9.894;2022-07-29T14:36:52;3.42;;;1.55;;
25946;SDS011;13745;51.470;9.894;2022-07-29T14:39:39;5.85;;;1.90;;
25946;SDS011;13745;51.470;9.894;2022-07-29T14:42:25;4.97;;;1.90;;
25946;SDS011;13745;51.470;9.894;2022-07-29T14:45:13;8.68;;;1.70;;
25946;SDS011;13745;51.470;9.894;2022-07-29T14:47:58;5.72;;;2.25;;
25946;SDS011;13745;51.470;9.894;2022-07-29T14:50:45;5.60;;;1.83;;
25946;SDS011;13745;51.470;9.894;2022-07-29T14:53:31;5.70;;;2.15;;
25946;SDS011;13745;51.470;9.894;2022-07-29T14:56:17;3.38;;;2.00;;
25946;SDS011;13745;51.470;9.894;2022-07-29T14:59:03;3.50;;;1.65;;
25946;SDS011;13745;51.470;9.894;2022-07-29T15:01:51;3.00;;;1.80;;
25946;SDS011;13745;51.470;9.894;2022-07-29T15:04:36;5.18;;;1.60;;
25946;SDS011;13745;51.470;9.894;2022-07-29T15:07:23;5.75;;;1.70;;
25946;SDS011;13745;51.470;9.894;2022-07-29T15:10:09;2.17;;;1.50;;
25946;SDS011;13745;51.470;9.894;2022-07-29T15:12:55;3.55;;;2.15;;
25946;SDS011;13745;51.470;9.894;2022-07-29T15:15:41;7.85;;;1.90;;
25946;SDS011;13745;51.470;9.894;2022-07-29T15:18:30;4.68;;;1.90;;
25946;SDS011;13745;51.470;9.894;2022-07-29T15:21:16;3.38;;;2.17;;
25946;SDS011;13745;51.470;9.894;2022-07-29T15:24:02;7.68;;;1.85;;
25946;SDS011;13745;51.470;9.894;2022-07-29T15:26:48;4.95;;;1.85;;
25946;SDS011;13745;51.470;9.894;2022-07-29T15:29:34;3.05;;;1.90;;
25946;SDS011;13745;51.470;9.894;2022-07-29T15:32:21;3.47;;;1.80;;
25946;SDS011;13745;51.470;9.894;2022-07-29T15:35:08;6.20;;;1.90;;
25946;SDS011;13745;51.470;9.894;2022-07-29T15:37:54;4.13;;;2.30;;
25946;SDS011;13745;51.470;9.894;2022-07-29T15:40:40;7.18;;;1.77;;
25946;SDS011;13745;51.470;9.894;2022-07-29T15:43:27;3.63;;;2.00;;
25946;SDS011;13745;51.470;9.894;2022-07-29T15:46:14;6.75;;;2.20;;
25946;SDS011;13745;51.470;9.894;2022-07-29T15:49:18;4.72;;;2.10;;
25946;SDS011;13745;51.470;9.894;2022-07-29T15:52:06;6.25;;;2.47;;
25946;SDS011;13745;51.470;9.894;2022-07-29T15:54:53;6.03;;;2.40;;
25946;SDS011;13745;51.470;9.894;2022-07-29T15:57:41;3.53;;;2.03;;
25946;SDS011;13745;51.470;9.894;2022-07-29T16:00:26;3.70;;;2.10;;
25946;SDS011;13745;51.470;9.894;2022-07-29T16:03:12;4.57;;;1.90;;
25946;SDS011;13745;51.470;9.894;2022-07-29T16:05:59;4.28;;;2.20;;
25946;SDS011;13745;51.470;9.894;2022-07-29T16:08:46;4.53;;;2.40;;
25946;SDS011;13745;51.470;9.894;2022-07-29T16:11:32;6.47;;;2.30;;
25946;SDS011;13745;51.470;9.894;2022-07-29T16:14:18;4.30;;;2.00;;
25946;SDS011;13745;51.470;9.894;2022-07-29T16:17:04;5.30;;;1.90;;
25946;SDS011;13745;51.470;9.894;2022-07-29T16:19:50;3.40;;;2.38;;
25946;SDS011;13745;51.470;9.894;2022-07-29T16:22:36;4.78;;;2.15;;
25946;SDS011;13745;51.470;9.894;2022-07-29T16:25:23;3.10;;;2.35;;
25946;SDS011;13745;51.470;9.894;2022-07-29T16:28:09;3.33;;;2.22;;
25946;SDS011;13745;51.470;9.894;2022-07-29T16:30:55;5.95;;;2.20;;
25946;SDS011;13745;51.470;9.894;2022-07-29T16:33:41;6.20;;;2.65;;
25946;SDS011;13745;51.470;9.894;2022-07-29T16:36:26;6.85;;;2.40;;
25946;SDS011;13745;51.470;9.894;2022-07-29T16:39:12;8.52;;;2.70;;
25946;SDS011;13745;51.470;9.894;2022-07-29T16:41:59;3.55;;;2.70;;
25946;SDS011;13745;51.470;9.894;2022-07-29T16:44:45;11.52;;;2.70;;
25946;SDS011;13745;51.470;9.894;2022-07-29T16:47:31;11.77;;;3.60;;
25946;SDS011;13745;51.470;9.894;2022-07-29T16:50:17;6.75;;;3.33;;
25946;SDS011;13745;51.470;9.894;2022-07-29T16:53:03;8.10;;;3.20;;
25946;SDS011;13745;51.470;9.894;2022-07-29T16:55:49;9.10;;;2.95;;
25946;SDS011;13745;51.470;9.894;2022-07-29T16:58:36;6.20;;;2.85;;
25946;SDS011;13745;51.470;9.894;2022-07-29T17:01:22;11.32;;;2.88;;
25946;SDS011;13745;51.470;9.894;2022-07-29T17:04:08;8.50;;;2.83;;
25946;SDS011;13745;51.470;9.894;2022-07-29T17:06:55;8.15;;;3.33;;
25946;SDS011;13745;51.470;9.894;2022-07-29T17:09:42;4.72;;;3.13;;